createdAt,value
2022-12-06T00:03:32.194Z,71.88
2022-12-06T00:09:06.704Z,71.62
2022-12-06T00:17:05.526Z,71.70
2022-12-06T00:23:01.807Z,71.65
2022-12-06T00:29:19.177Z,71.72
2022-12-06T00:46:20.037Z,72.11
2022-12-06T00:59:54.375Z,72.24
2022-12-06T01:06:34.962Z,71.96
2022-12-06T01:12:04.001Z,71.84
2022-12-06T01:17:37.135Z,71.59
2022-12-06T01:22:47.651Z,71.85
2022-12-06T01:28:58.057Z,71.96
2022-12-06T01:40:32.129Z,72.34
2022-12-06T02:10:45.812Z,72.24
2022-12-06T02:16:41.911Z,72.43
2022-12-06T02:22:21.752Z,72.49
2022-12-06T02:28:27.142Z,72.72
2022-12-06T02:45:41.564Z,72.37
2022-12-06T03:04:38.620Z,72.34
2022-12-06T03:29:38.636Z,72.37
2022-12-06T03:35:25.123Z,72.32
2022-12-06T03:41:22.578Z,72.29
2022-12-06T04:04:07.298Z,71.84
2022-12-06T04:09:58.439Z,71.73
2022-12-06T04:15:15.504Z,71.77
2022-12-06T04:21:07.901Z,71.80
2022-12-06T04:33:17.886Z,71.71
2022-12-06T04:45:20.576Z,71.67
2022-12-06T05:00:03.810Z,71.71
2022-12-06T05:06:39.824Z,71.50
2022-12-06T05:12:50.419Z,71.55
2022-12-06T05:24:13.089Z,71.83
2022-12-06T05:42:22.071Z,71.56
2022-12-06T06:25:41.925Z,71.37
2022-12-06T06:31:26.100Z,71.40
2022-12-06T06:46:47.061Z,72.45
2022-12-06T06:53:35.699Z,71.97
2022-12-06T06:58:53.119Z,72.07
2022-12-06T07:04:51.430Z,72.37
2022-12-06T07:17:14.779Z,71.94
2022-12-06T07:50:52.222Z,72.06
2022-12-06T08:23:45.126Z,72.43
2022-12-06T08:29:57.256Z,72.33
2022-12-06T08:35:43.008Z,72.26
2022-12-06T08:42:09.509Z,72.27
2022-12-06T08:47:16.403Z,72.38
2022-12-06T08:52:45.004Z,72.34
2022-12-06T08:57:55.184Z,71.85
2022-12-06T09:04:11.873Z,71.37
2022-12-06T09:21:13.312Z,71.80
2022-12-06T09:27:56.219Z,71.91
2022-12-06T09:39:40.071Z,72.17
2022-12-06T09:51:18.942Z,72.16
2022-12-06T09:56:40.891Z,72.15
2022-12-06T10:02:19.764Z,72.11
2022-12-06T10:07:57.045Z,71.98
2022-12-06T10:13:43.221Z,72.59
2022-12-06T10:19:20.953Z,72.49
2022-12-06T10:31:38.380Z,72.69
2022-12-06T10:37:26.391Z,71.89
2022-12-06T10:43:31.071Z,71.82
2022-12-06T10:49:10.710Z,72.02
2022-12-06T11:01:54.887Z,71.98
2022-12-06T11:07:43.816Z,72.31
2022-12-06T11:13:37.723Z,72.71
2022-12-06T11:18:51.915Z,72.79
2022-12-06T11:24:54.183Z,72.91
2022-12-06T11:30:25.134Z,72.65
2022-12-06T11:36:20.728Z,72.75
2022-12-06T11:55:13.167Z,72.76
2022-12-06T12:06:25.566Z,72.57
2022-12-06T12:12:01.915Z,72.55
2022-12-06T12:17:48.727Z,72.55
2022-12-06T12:23:34.638Z,72.39
2022-12-06T12:28:39.875Z,72.37
2022-12-06T12:47:46.820Z,72.91
2022-12-06T12:54:55.292Z,73.16
2022-12-06T13:00:36.416Z,73.12
2022-12-06T13:06:14.632Z,73.12
2022-12-06T13:13:03.429Z,73.01
2022-12-06T13:18:16.813Z,72.59
2022-12-06T13:23:35.149Z,72.53
2022-12-06T13:29:18.280Z,72.53
2022-12-06T13:42:15.808Z,72.52
2022-12-06T13:47:28.819Z,72.27
2022-12-06T13:52:48.169Z,71.49
2022-12-06T13:57:59.730Z,70.08
2022-12-06T14:03:24.639Z,70.29
2022-12-06T14:09:04.666Z,69.34
2022-12-06T14:19:52.514Z,69.08
2022-12-06T14:25:30.054Z,69.34
2022-12-06T14:30:34.652Z,69.72
2022-12-06T14:35:40.394Z,69.86
2022-12-06T14:41:03.915Z,69.58
2022-12-06T14:46:39.084Z,69.02
2022-12-06T14:52:15.680Z,68.84
2022-12-06T14:57:37.848Z,68.50
2022-12-06T15:03:16.134Z,68.45
2022-12-06T15:08:34.812Z,68.49
2022-12-06T15:13:40.379Z,68.40
2022-12-06T15:18:57.420Z,68.65
2022-12-06T15:24:04.354Z,68.81
2022-12-06T15:29:10.285Z,68.85
2022-12-06T15:34:36.118Z,68.72
2022-12-06T15:39:41.818Z,68.52
2022-12-06T15:44:49.870Z,68.57
2022-12-06T15:50:27.243Z,68.60
2022-12-06T15:55:58.762Z,68.53
2022-12-06T16:01:27.139Z,68.52
2022-12-06T16:06:32.617Z,69.17
2022-12-06T16:11:39.705Z,69.15
2022-12-06T16:17:05.588Z,68.87
2022-12-06T16:22:56.168Z,68.91
2022-12-06T16:28:06.371Z,68.79
2022-12-06T16:33:30.056Z,68.51
2022-12-06T16:38:40.781Z,68.35
2022-12-06T16:43:46.926Z,68.54
2022-12-06T16:49:36.679Z,68.65
2022-12-06T16:54:27.655Z,68.82
2022-12-06T16:59:31.683Z,69.09
2022-12-06T17:04:45.672Z,69.08
2022-12-06T17:09:51.245Z,69.25
2022-12-06T17:14:56.126Z,69.09
2022-12-06T17:20:04.568Z,68.71
2022-12-06T17:25:12.087Z,68.70
2022-12-06T17:30:23.836Z,68.52
2022-12-06T17:35:32.634Z,69.09
2022-12-06T17:40:40.295Z,68.79
2022-12-06T17:45:46.203Z,68.35
2022-12-06T17:50:54.447Z,68.51
2022-12-06T17:56:36.999Z,68.81
2022-12-06T18:02:13.712Z,68.93
2022-12-06T18:07:11.856Z,68.99
2022-12-06T18:12:21.269Z,68.51
2022-12-06T18:22:56.832Z,68.14
2022-12-06T18:28:02.383Z,68.43
2022-12-06T18:33:31.188Z,68.36
2022-12-06T18:38:43.651Z,68.87
2022-12-06T18:44:01.468Z,69.14
2022-12-06T18:49:07.325Z,69.29
2022-12-06T18:54:14.521Z,69.67
2022-12-06T18:59:54.713Z,69.86
2022-12-06T19:06:05.715Z,68.96
2022-12-06T19:16:52.871Z,68.47
2022-12-06T19:22:18.627Z,68.83
2022-12-06T19:33:50.877Z,69.70
2022-12-06T19:56:31.685Z,69.29
2022-12-06T20:01:51.223Z,69.84
2022-12-06T20:07:08.215Z,69.42
2022-12-06T20:17:54.863Z,69.04
2022-12-06T20:23:00.520Z,69.18
2022-12-06T20:28:13.660Z,69.36
2022-12-06T20:33:19.852Z,69.20
2022-12-06T20:38:40.179Z,68.71
2022-12-06T20:43:48.647Z,69.05
2022-12-06T20:48:54.875Z,69.00
2022-12-06T20:54:50.199Z,68.86
2022-12-06T20:59:54.968Z,68.82
2022-12-06T21:04:59.219Z,68.88
2022-12-06T21:10:05.045Z,69.22
2022-12-06T21:15:11.574Z,69.13
2022-12-06T21:20:17.056Z,69.21
2022-12-06T21:31:11.376Z,69.19
2022-12-06T21:36:27.792Z,69.05
2022-12-06T21:41:43.313Z,69.36
2022-12-06T21:47:00.412Z,68.82
2022-12-06T21:52:12.468Z,68.78
2022-12-06T21:57:16.945Z,68.70
2022-12-06T22:02:23.435Z,68.52
2022-12-06T22:07:37.277Z,68.40
2022-12-06T22:12:41.546Z,68.23
2022-12-06T22:17:50.167Z,68.59
2022-12-06T22:22:55.890Z,68.37
2022-12-06T22:28:02.744Z,68.36
2022-12-06T22:33:06.727Z,68.45
2022-12-06T22:38:25.711Z,68.17
2022-12-06T22:43:37.404Z,68.03
2022-12-06T22:49:12.566Z,67.71
2022-12-06T22:54:19.039Z,67.88
2022-12-06T22:59:31.720Z,68.05
2022-12-06T23:10:35.948Z,68.43
2022-12-06T23:16:01.799Z,68.74
2022-12-06T23:21:13.080Z,68.60
2022-12-06T23:26:24.633Z,68.38
2022-12-06T23:32:03.963Z,68.41
2022-12-06T23:37:23.635Z,68.08
2022-12-06T23:42:39.000Z,68.36
2022-12-06T23:47:42.176Z,68.35
2022-12-06T23:52:52.832Z,68.71
